createdAt,value
2022-11-21T00:01:19.156Z,56.77
2022-11-21T00:03:47.634Z,56.36
2022-11-21T00:06:15.864Z,56.08
2022-11-21T00:08:43.933Z,56.18
2022-11-21T00:11:13.481Z,56.46
2022-11-21T00:13:41.843Z,56.15
2022-11-21T00:16:11.981Z,56.04
2022-11-21T00:18:40.476Z,56.32
2022-11-21T00:21:10.028Z,56.30
2022-11-21T00:23:37.883Z,56.32
2022-11-21T00:26:06.980Z,56.24
2022-11-21T00:28:36.943Z,56.16
2022-11-21T00:31:05.987Z,56.32
2022-11-21T00:33:39.145Z,56.36
2022-11-21T00:36:08.851Z,56.23
2022-11-21T00:38:36.677Z,56.11
2022-11-21T00:41:04.757Z,56.27
2022-11-21T00:43:32.527Z,56.28
2022-11-21T00:46:02.922Z,56.41
2022-11-21T00:48:32.252Z,56.20
2022-11-21T00:51:01.442Z,55.96
2022-11-21T00:53:30.255Z,56.02
2022-11-21T00:55:58.371Z,55.98
2022-11-21T00:58:26.260Z,55.78
2022-11-21T01:00:54.204Z,55.79
2022-11-21T01:03:23.490Z,55.91
2022-11-21T01:05:51.587Z,55.75
2022-11-21T01:08:19.445Z,55.62
2022-11-21T01:10:47.198Z,55.96
2022-11-21T01:13:14.959Z,55.84
2022-11-21T01:15:42.740Z,55.73
2022-11-21T01:18:10.923Z,55.81
2022-11-21T01:20:41.501Z,55.87
2022-11-21T01:23:09.391Z,55.71
2022-11-21T01:25:37.712Z,55.66
2022-11-21T01:28:05.819Z,55.74
2022-11-21T01:30:33.573Z,55.83
2022-11-21T01:33:01.367Z,55.94
2022-11-21T01:35:29.587Z,55.61
2022-11-21T01:37:58.790Z,55.85
2022-11-21T01:40:26.944Z,55.38
2022-11-21T01:43:06.126Z,55.83
2022-11-21T01:45:55.517Z,55.73
2022-11-21T01:48:28.671Z,55.55
2022-11-21T01:51:00.370Z,55.50
2022-11-21T01:53:29.569Z,55.60
2022-11-21T01:55:57.430Z,55.53
2022-11-21T01:58:26.470Z,55.26
2022-11-21T02:00:54.797Z,55.38
2022-11-21T02:03:28.192Z,55.48
2022-11-21T02:05:57.172Z,55.63
2022-11-21T02:08:27.479Z,55.23
2022-11-21T02:11:07.690Z,55.78
2022-11-21T02:13:35.475Z,55.24
2022-11-21T02:16:03.629Z,55.56
2022-11-21T02:18:31.461Z,55.56
2022-11-21T02:21:08.209Z,55.29
2022-11-21T02:23:42.971Z,55.55
2022-11-21T02:26:13.014Z,55.42
2022-11-21T02:28:41.036Z,55.46
2022-11-21T02:31:08.865Z,55.05
2022-11-21T02:33:36.690Z,55.37
2022-11-21T02:36:05.289Z,55.27
2022-11-21T02:38:35.968Z,55.14
2022-11-21T02:41:10.807Z,55.52
2022-11-21T02:43:45.897Z,55.52
2022-11-21T02:46:13.783Z,55.51
2022-11-21T02:48:41.612Z,55.13
2022-11-21T02:51:10.449Z,55.20
2022-11-21T02:53:38.260Z,55.22
2022-11-21T02:56:06.192Z,55.15
2022-11-21T02:58:34.202Z,55.06
2022-11-21T03:01:03.437Z,55.48
2022-11-21T03:03:31.246Z,55.09
2022-11-21T03:05:59.100Z,55.03
2022-11-21T03:08:26.950Z,55.29
2022-11-21T03:10:54.757Z,55.21
2022-11-21T03:13:22.514Z,55.37
2022-11-21T03:15:50.335Z,55.25
2022-11-21T03:18:19.401Z,55.29
2022-11-21T03:20:47.227Z,55.14
2022-11-21T03:23:14.991Z,55.18
2022-11-21T03:25:42.820Z,55.11
2022-11-21T03:28:10.666Z,55.27
2022-11-21T03:30:38.455Z,55.48
2022-11-21T03:33:06.303Z,55.45
2022-11-21T03:35:35.475Z,55.30
2022-11-21T03:38:03.242Z,55.18
2022-11-21T03:40:31.023Z,55.61
2022-11-21T03:42:58.834Z,55.08
2022-11-21T03:45:26.667Z,55.37
2022-11-21T03:47:54.429Z,55.40
2022-11-21T03:50:22.234Z,55.27
2022-11-21T03:52:51.424Z,55.30
2022-11-21T03:55:19.340Z,55.20
2022-11-21T03:57:47.503Z,55.02
2022-11-21T04:00:16.882Z,55.37
2022-11-21T04:02:44.695Z,55.23
2022-11-21T04:05:12.629Z,55.21
2022-11-21T04:07:40.520Z,55.10
2022-11-21T04:10:10.785Z,55.17
2022-11-21T04:12:38.673Z,54.89
2022-11-21T04:15:13.220Z,55.06
2022-11-21T04:17:41.681Z,55.38
2022-11-21T04:20:10.558Z,54.87
2022-11-21T04:22:38.394Z,54.82
2022-11-21T04:25:07.313Z,54.87
2022-11-21T04:27:36.688Z,55.06
2022-11-21T04:30:05.137Z,54.66
2022-11-21T04:32:32.930Z,54.62
2022-11-21T04:35:00.666Z,54.89
2022-11-21T04:37:28.456Z,54.69
2022-11-21T04:39:56.444Z,54.73
2022-11-21T04:42:24.325Z,54.87
2022-11-21T04:44:53.540Z,54.93
2022-11-21T04:47:21.483Z,54.87
2022-11-21T04:49:49.252Z,54.93
2022-11-21T04:52:17.173Z,54.99
2022-11-21T04:54:44.936Z,54.83
2022-11-21T04:57:12.649Z,55.01
2022-11-21T04:59:40.405Z,54.88
2022-11-21T05:02:09.949Z,54.76
2022-11-21T05:04:37.932Z,55.00
2022-11-21T05:07:05.847Z,54.83
2022-11-21T05:09:33.632Z,54.96
2022-11-21T05:12:18.840Z,54.73
2022-11-21T05:14:46.839Z,55.01
2022-11-21T05:17:16.124Z,55.00
2022-11-21T05:19:43.912Z,54.75
2022-11-21T05:22:12.303Z,54.71
2022-11-21T05:24:40.608Z,54.97
2022-11-21T05:27:08.447Z,54.82
2022-11-21T05:29:36.244Z,55.03
2022-11-21T05:32:04.103Z,55.14
2022-11-21T05:34:33.390Z,54.72
2022-11-21T05:37:01.221Z,54.69
2022-11-21T05:39:29.004Z,54.59
2022-11-21T05:42:01.454Z,54.69
2022-11-21T05:44:30.873Z,54.53
2022-11-21T05:46:59.200Z,54.76
2022-11-21T05:49:27.127Z,54.59
2022-11-21T05:51:56.640Z,54.63
2022-11-21T05:54:24.587Z,54.68
2022-11-21T05:56:52.959Z,54.73
2022-11-21T05:59:20.846Z,54.86
2022-11-21T06:02:05.970Z,54.70
2022-11-21T06:04:34.174Z,54.91
2022-11-21T06:07:05.904Z,54.85
2022-11-21T06:09:33.834Z,54.81
2022-11-21T06:12:01.718Z,54.65
2022-11-21T06:14:29.770Z,54.59
2022-11-21T06:16:57.718Z,54.41
2022-11-21T06:19:25.504Z,54.40
2022-11-21T06:21:53.295Z,54.47
2022-11-21T06:24:22.597Z,54.55
2022-11-21T06:26:50.349Z,54.58
2022-11-21T06:29:18.235Z,54.65
2022-11-21T06:31:45.998Z,54.67
2022-11-21T06:34:13.795Z,54.70
2022-11-21T06:36:41.528Z,54.63
2022-11-21T06:39:09.389Z,54.85
2022-11-21T06:41:38.537Z,54.67
2022-11-21T06:44:06.623Z,54.57
2022-11-21T06:46:34.365Z,54.72
2022-11-21T06:49:02.384Z,54.47
2022-11-21T06:51:30.224Z,54.96
2022-11-21T06:53:59.890Z,54.91
2022-11-21T06:56:29.562Z,54.77
2022-11-21T06:59:00.336Z,54.81
2022-11-21T07:01:28.906Z,54.60
2022-11-21T07:03:56.834Z,54.84
2022-11-21T07:06:25.268Z,55.10
2022-11-21T07:09:25.418Z,55.19
2022-11-21T07:11:43.163Z,55.25
2022-11-21T07:14:11.648Z,55.17
2022-11-21T07:16:39.599Z,54.90
2022-11-21T07:19:07.404Z,54.98
2022-11-21T07:21:35.612Z,54.84
2022-11-21T07:24:03.340Z,55.23
2022-11-21T07:26:31.205Z,55.24
2022-11-21T07:28:59.678Z,55.24
2022-11-21T07:31:28.867Z,55.11
2022-11-21T07:33:56.669Z,55.16
2022-11-21T07:36:24.469Z,55.12
2022-11-21T07:38:52.196Z,55.32
2022-11-21T07:41:20.037Z,55.14
2022-11-21T07:44:01.240Z,55.39
2022-11-21T07:46:46.467Z,55.26
2022-11-21T07:49:14.926Z,55.28
2022-11-21T07:51:52.283Z,55.60
2022-11-21T07:54:23.256Z,55.64
2022-11-21T07:56:51.637Z,55.49
2022-11-21T07:59:19.943Z,55.53
2022-11-21T08:01:49.884Z,55.62
2022-11-21T08:04:17.797Z,55.66
2022-11-21T08:06:45.901Z,55.80
2022-11-21T08:09:13.931Z,55.93
2022-11-21T08:11:43.810Z,56.12
2022-11-21T08:14:12.152Z,55.63
2022-11-21T08:16:40.113Z,55.94
2022-11-21T08:19:10.037Z,56.30
2022-11-21T08:21:38.135Z,55.66
2022-11-21T08:24:10.449Z,55.87
2022-11-21T08:26:38.344Z,56.25
2022-11-21T08:29:06.282Z,55.78
2022-11-21T08:31:34.295Z,56.03
2022-11-21T08:34:02.286Z,55.97
2022-11-21T08:36:31.828Z,56.03
2022-11-21T08:38:59.590Z,56.04
2022-11-21T08:41:45.341Z,56.05
2022-11-21T08:44:16.243Z,56.07
2022-11-21T08:46:49.325Z,56.15
2022-11-21T08:49:17.044Z,56.94
2022-11-21T08:51:49.333Z,56.10
2022-11-21T08:54:19.869Z,55.94
2022-11-21T08:56:47.980Z,55.98
2022-11-21T08:59:17.490Z,56.10
2022-11-21T09:01:45.830Z,56.05
2022-11-21T09:04:14.281Z,55.92
2022-11-21T09:06:42.268Z,56.14
2022-11-21T09:09:13.023Z,55.96
2022-11-21T09:11:41.722Z,56.22
2022-11-21T09:14:27.617Z,56.11
2022-11-21T09:17:12.975Z,56.06
2022-11-21T09:19:40.865Z,56.07
2022-11-21T09:22:08.751Z,56.27
2022-11-21T09:24:38.070Z,56.04
2022-11-21T09:27:06.009Z,56.26
2022-11-21T09:29:33.924Z,56.10
2022-11-21T09:32:01.825Z,56.15
2022-11-21T09:34:31.704Z,56.52
2022-11-21T09:36:59.734Z,56.39
2022-11-21T09:39:27.926Z,56.46
2022-11-21T09:42:09.202Z,56.64
2022-11-21T09:44:51.823Z,56.95
2022-11-21T09:47:29.415Z,56.73
2022-11-21T09:50:01.020Z,56.89
2022-11-21T09:52:37.087Z,56.60
2022-11-21T09:55:08.769Z,56.69
2022-11-21T09:57:38.109Z,56.66
2022-11-21T10:00:16.711Z,56.82
2022-11-21T10:02:44.611Z,56.43
2022-11-21T10:05:15.695Z,56.41
2022-11-21T10:07:47.212Z,56.55
2022-11-21T10:10:28.823Z,56.42
2022-11-21T10:13:11.846Z,56.73
2022-11-21T10:15:55.873Z,56.67
2022-11-21T10:18:56.811Z,56.64
2022-11-21T10:21:45.185Z,56.59
2022-11-21T10:24:30.778Z,56.89
2022-11-21T10:27:02.147Z,56.34
2022-11-21T10:29:36.376Z,56.59
2022-11-21T10:32:12.530Z,56.07
2022-11-21T10:34:40.478Z,56.18
2022-11-21T10:37:16.574Z,56.15
2022-11-21T10:39:48.147Z,56.80
2022-11-21T10:42:29.959Z,56.43
2022-11-21T10:45:19.475Z,56.37
2022-11-21T10:47:49.241Z,56.31
2022-11-21T10:50:40.399Z,56.40
2022-11-21T10:53:34.812Z,56.50
2022-11-21T10:56:05.959Z,56.43
2022-11-21T10:58:45.472Z,56.30
2022-11-21T11:01:30.191Z,56.71
2022-11-21T11:04:52.462Z,56.79
2022-11-21T11:07:26.029Z,56.49
2022-11-21T11:13:58.449Z,56.44
2022-11-21T11:16:35.945Z,56.61
2022-11-21T11:19:57.337Z,56.64
2022-11-21T11:22:29.079Z,56.46
2022-11-21T11:25:00.420Z,56.26
2022-11-21T11:27:29.439Z,56.68
2022-11-21T11:29:57.267Z,56.41
2022-11-21T11:32:26.878Z,56.38
2022-11-21T11:35:01.036Z,55.96
2022-11-21T11:37:40.348Z,56.34
2022-11-21T11:40:19.944Z,55.99
2022-11-21T11:43:32.139Z,56.13
2022-11-21T11:46:28.308Z,56.19
2022-11-21T11:49:21.886Z,56.03
2022-11-21T11:51:54.523Z,56.08
2022-11-21T11:54:27.736Z,56.25
2022-11-21T11:56:56.712Z,56.21
2022-11-21T11:59:29.804Z,56.05
2022-11-21T12:02:06.312Z,56.01
2022-11-21T12:04:45.450Z,56.10
2022-11-21T12:10:16.279Z,56.16
2022-11-21T12:12:50.201Z,56.36
2022-11-21T12:15:39.778Z,56.22
2022-11-21T12:18:17.254Z,56.52
2022-11-21T12:20:55.446Z,56.24
2022-11-21T12:23:25.348Z,56.52
2022-11-21T12:26:04.568Z,56.51
2022-11-21T12:28:42.373Z,56.29
2022-11-21T12:31:15.711Z,56.26
2022-11-21T12:33:51.660Z,56.21
2022-11-21T12:36:35.335Z,55.16
2022-11-21T12:39:46.176Z,54.83
2022-11-21T12:42:39.319Z,55.76
2022-11-21T12:45:27.356Z,54.53
2022-11-21T12:48:29.744Z,53.96
2022-11-21T12:51:31.690Z,53.76
2022-11-21T12:54:24.178Z,54.19
2022-11-21T12:57:00.905Z,53.77
2022-11-21T12:59:32.078Z,54.06
2022-11-21T13:02:08.435Z,53.29
2022-11-21T13:04:39.482Z,53.44
2022-11-21T13:07:08.540Z,53.55
2022-11-21T13:09:41.158Z,53.54
2022-11-21T13:12:16.394Z,53.40
2022-11-21T13:14:52.767Z,53.58
2022-11-21T13:17:30.427Z,53.13
2022-11-21T13:20:01.375Z,53.89
2022-11-21T13:22:52.006Z,53.34
2022-11-21T13:25:47.691Z,53.02
2022-11-21T13:28:34.749Z,53.13
2022-11-21T13:31:04.900Z,53.88
2022-11-21T13:33:51.146Z,52.98
2022-11-21T13:36:40.224Z,52.39
2022-11-21T13:39:39.297Z,52.12
2022-11-21T13:45:39.196Z,51.49
2022-11-21T13:48:38.784Z,50.99
2022-11-21T13:51:29.915Z,51.10
2022-11-21T13:54:15.957Z,51.22
2022-11-21T13:57:04.062Z,51.29
2022-11-21T14:00:00.072Z,50.75
2022-11-21T14:02:50.738Z,50.66
2022-11-21T14:05:33.313Z,51.40
2022-11-21T14:08:15.189Z,51.06
2022-11-21T14:10:46.717Z,52.02
2022-11-21T14:13:24.695Z,51.08
2022-11-21T14:16:09.403Z,50.62
2022-11-21T14:18:39.998Z,51.19
2022-11-21T14:21:09.205Z,51.62
2022-11-21T14:23:44.164Z,51.17
2022-11-21T14:26:15.954Z,51.41
2022-11-21T14:28:43.990Z,50.89
2022-11-21T14:31:14.625Z,50.83
2022-11-21T14:33:43.693Z,51.18
2022-11-21T14:36:15.597Z,50.30
2022-11-21T14:38:47.068Z,50.89
2022-11-21T14:41:29.902Z,49.64
2022-11-21T14:44:16.593Z,49.05
2022-11-21T14:46:47.459Z,50.23
2022-11-21T14:49:24.894Z,49.55
2022-11-21T14:51:59.527Z,49.95
2022-11-21T14:54:31.257Z,50.03
2022-11-21T14:57:01.290Z,50.16
2022-11-21T14:59:32.042Z,49.85
2022-11-21T15:02:03.958Z,49.80
2022-11-21T15:04:34.418Z,49.72
2022-11-21T15:07:03.210Z,50.09
2022-11-21T15:10:26.694Z,49.85
2022-11-21T15:12:29.829Z,49.07
2022-11-21T15:15:01.994Z,49.61
2022-11-21T15:17:31.714Z,49.65
2022-11-21T15:20:11.611Z,48.69
2022-11-21T15:22:42.263Z,49.66
2022-11-21T15:25:17.047Z,48.93
2022-11-21T15:27:47.206Z,49.91
2022-11-21T15:30:25.512Z,48.87
2022-11-21T15:33:09.444Z,48.40
2022-11-21T15:35:51.786Z,48.91
2022-11-21T15:38:32.054Z,48.68
2022-11-21T15:41:24.095Z,49.39
2022-11-21T15:43:53.846Z,49.46
2022-11-21T15:46:23.561Z,49.74
2022-11-21T15:48:54.436Z,49.17
2022-11-21T15:51:51.385Z,49.78
2022-11-21T15:54:15.123Z,49.70
2022-11-21T15:56:42.931Z,49.42
2022-11-21T15:59:11.477Z,49.57
2022-11-21T16:01:39.498Z,49.35
2022-11-21T16:04:10.922Z,49.23
2022-11-21T16:06:38.826Z,49.84
2022-11-21T16:09:06.879Z,49.52
2022-11-21T16:11:37.286Z,49.39
2022-11-21T16:14:07.109Z,49.61
2022-11-21T16:16:42.697Z,49.41
2022-11-21T16:19:13.695Z,49.73
2022-11-21T16:21:42.161Z,49.55
2022-11-21T16:24:12.550Z,49.49
2022-11-21T16:26:40.401Z,49.40
2022-11-21T16:29:08.291Z,49.55
2022-11-21T16:31:36.208Z,49.49
2022-11-21T16:34:04.138Z,49.51
2022-11-21T16:36:33.658Z,49.63
2022-11-21T16:39:08.868Z,49.69
2022-11-21T16:41:39.374Z,49.49
2022-11-21T16:44:13.634Z,49.08
2022-11-21T16:46:44.392Z,49.18
2022-11-21T16:49:12.371Z,49.54
2022-11-21T16:51:41.586Z,49.57
2022-11-21T16:54:09.886Z,49.33
2022-11-21T16:56:38.100Z,49.13
2022-11-21T16:59:06.053Z,49.01
2022-11-21T17:01:34.075Z,49.10
2022-11-21T17:04:02.127Z,49.33
2022-11-21T17:06:31.710Z,49.44
2022-11-21T17:09:02.299Z,49.15
2022-11-21T17:11:31.964Z,49.30
2022-11-21T17:14:03.464Z,49.18
2022-11-21T17:16:31.893Z,49.57
2022-11-21T17:19:01.030Z,49.18
2022-11-21T17:21:29.986Z,49.68
2022-11-21T17:23:58.112Z,49.61
2022-11-21T17:26:30.285Z,49.38
2022-11-21T17:29:00.006Z,49.80
2022-11-21T17:31:28.637Z,49.70
2022-11-21T17:33:58.005Z,49.66
2022-11-21T17:36:28.000Z,49.56
2022-11-21T17:38:56.105Z,49.63
2022-11-21T17:41:26.063Z,49.93
2022-11-21T17:43:56.934Z,49.68
2022-11-21T17:46:26.280Z,49.78
2022-11-21T17:48:58.074Z,49.61
2022-11-21T17:51:28.831Z,49.61
2022-11-21T17:53:57.313Z,49.63
2022-11-21T17:56:27.525Z,49.48
2022-11-21T17:58:56.913Z,49.58
2022-11-21T18:01:25.028Z,49.98
2022-11-21T18:03:56.145Z,49.51
2022-11-21T18:06:24.780Z,49.82
2022-11-21T18:08:52.800Z,49.83
2022-11-21T18:11:39.282Z,49.29
2022-11-21T18:14:08.743Z,49.37
2022-11-21T18:16:37.236Z,49.25
2022-11-21T18:19:05.078Z,49.21
2022-11-21T18:21:35.444Z,49.49
2022-11-21T18:24:03.691Z,49.30
2022-11-21T18:26:34.789Z,48.93
2022-11-21T18:31:53.340Z,49.48
2022-11-21T18:34:21.266Z,49.95
2022-11-21T18:36:49.071Z,50.33
2022-11-21T18:39:16.843Z,49.95
2022-11-21T18:41:47.179Z,50.28
2022-11-21T18:44:21.294Z,49.74
2022-11-21T18:46:49.905Z,49.98
2022-11-21T18:49:18.252Z,49.67
2022-11-21T18:51:46.236Z,49.47
2022-11-21T18:54:14.058Z,49.38
2022-11-21T18:56:42.199Z,49.36
2022-11-21T18:59:14.419Z,49.19
2022-11-21T19:01:42.399Z,48.95
2022-11-21T19:04:10.384Z,49.15
2022-11-21T19:06:38.258Z,49.30
2022-11-21T19:09:06.129Z,49.10
2022-11-21T19:11:34.027Z,49.23
2022-11-21T19:14:02.011Z,49.10
2022-11-21T19:16:34.104Z,49.10
2022-11-21T19:21:50.477Z,49.34
2022-11-21T19:24:19.445Z,49.14
2022-11-21T19:26:50.364Z,49.03
2022-11-21T19:29:18.795Z,48.90
2022-11-21T19:31:48.011Z,49.30
2022-11-21T19:34:16.566Z,48.80
2022-11-21T19:36:45.894Z,49.21
2022-11-21T19:39:14.265Z,49.14
2022-11-21T19:41:42.389Z,49.04
2022-11-21T19:44:11.411Z,49.36
2022-11-21T19:46:40.697Z,49.24
2022-11-21T19:49:11.970Z,48.64
2022-11-21T19:51:41.680Z,48.97
2022-11-21T19:54:11.987Z,49.21
2022-11-21T19:56:40.496Z,48.86
2022-11-21T19:59:08.696Z,48.98
2022-11-21T20:01:36.559Z,49.00
2022-11-21T20:04:06.033Z,48.96
2022-11-21T20:06:36.823Z,49.15
2022-11-21T20:09:07.937Z,49.03
2022-11-21T20:11:36.627Z,49.04
2022-11-21T20:14:04.919Z,49.02
2022-11-21T20:16:34.528Z,49.21
2022-11-21T20:19:04.506Z,49.28
2022-11-21T20:21:32.528Z,49.32
2022-11-21T20:24:01.899Z,48.98
2022-11-21T20:26:29.894Z,49.08
2022-11-21T20:28:58.142Z,49.43
2022-11-21T20:31:28.159Z,49.31
2022-11-21T20:33:58.189Z,49.10
2022-11-21T20:36:27.701Z,49.27
2022-11-21T20:38:57.009Z,49.08
2022-11-21T20:41:28.252Z,49.27
2022-11-21T20:46:48.077Z,49.40
2022-11-21T20:49:16.632Z,49.19
2022-11-21T20:54:33.188Z,49.31
2022-11-21T20:57:02.642Z,49.40
2022-11-21T20:59:30.619Z,49.36
2022-11-21T21:01:58.673Z,49.26
2022-11-21T21:04:27.044Z,49.27
2022-11-21T21:06:54.887Z,49.27
2022-11-21T21:09:22.760Z,49.31
2022-11-21T21:11:52.506Z,49.46
2022-11-21T21:14:22.442Z,49.49
2022-11-21T21:16:50.658Z,49.54
2022-11-21T21:19:19.008Z,49.64
2022-11-21T21:21:46.859Z,49.43
2022-11-21T21:24:15.978Z,49.76
2022-11-21T21:26:46.623Z,49.38
2022-11-21T21:29:18.462Z,49.69
2022-11-21T21:31:51.731Z,49.48
2022-11-21T21:34:20.722Z,49.68
2022-11-21T21:36:48.965Z,49.69
2022-11-21T21:39:16.853Z,49.95
2022-11-21T21:41:46.647Z,49.64
2022-11-21T21:44:16.230Z,49.52
2022-11-21T21:46:44.364Z,49.69
2022-11-21T21:49:13.751Z,49.88
2022-11-21T21:51:41.997Z,49.74
2022-11-21T21:54:16.843Z,49.68
2022-11-21T21:56:46.519Z,49.81
2022-11-21T21:59:15.019Z,49.70
2022-11-21T22:01:43.760Z,49.92
2022-11-21T22:04:13.533Z,49.79
2022-11-21T22:06:41.754Z,50.06
2022-11-21T22:09:09.745Z,49.94
2022-11-21T22:11:39.639Z,49.74
2022-11-21T22:14:11.537Z,50.16
2022-11-21T22:16:39.839Z,49.93
2022-11-21T22:19:07.923Z,49.90
2022-11-21T22:21:38.767Z,50.29
2022-11-21T22:24:28.743Z,50.13
2022-11-21T22:26:56.930Z,50.15
2022-11-21T22:29:24.775Z,50.21
2022-11-21T22:31:52.783Z,50.44
2022-11-21T22:34:20.592Z,50.46
2022-11-21T22:36:50.059Z,50.77
2022-11-21T22:39:18.148Z,50.54
2022-11-21T22:41:46.440Z,50.75
2022-11-21T22:44:14.324Z,50.42
2022-11-21T22:46:42.170Z,50.79
2022-11-21T22:49:09.999Z,50.51
2022-11-21T22:51:37.940Z,50.50
2022-11-21T22:54:07.216Z,50.68
2022-11-21T22:56:35.069Z,50.93
2022-11-21T22:59:03.160Z,51.11
2022-11-21T23:01:33.222Z,50.67
2022-11-21T23:04:01.386Z,51.00
2022-11-21T23:06:29.228Z,51.08
2022-11-21T23:08:58.028Z,51.04
2022-11-21T23:11:28.746Z,51.13
2022-11-21T23:13:57.515Z,51.13
2022-11-21T23:16:26.513Z,51.01
2022-11-21T23:18:55.060Z,51.06
2022-11-21T23:21:23.239Z,51.44
2022-11-21T23:23:51.212Z,51.32
2022-11-21T23:26:19.234Z,51.14
2022-11-21T23:28:48.497Z,51.35
2022-11-21T23:31:16.387Z,50.94
2022-11-21T23:33:44.223Z,51.19
2022-11-21T23:36:12.162Z,51.22
2022-11-21T23:38:40.029Z,51.37
2022-11-21T23:41:07.806Z,51.34
2022-11-21T23:43:35.702Z,51.33
2022-11-21T23:46:05.224Z,51.48
2022-11-21T23:48:32.987Z,51.54
2022-11-21T23:51:00.771Z,51.30
2022-11-21T23:53:28.624Z,51.53
2022-11-21T23:55:56.394Z,51.52
2022-11-21T23:58:24.182Z,51.65
